Terminal Aerodrome Forecast
Issued by NWS

Home | Current Version | Previous Version | Text Only | Print | Product List | Glossary Off
Versions: 1 2 3 4 5 6 7 8 9 10 11 12 13 14 15 16 17 18 19 20

907
FTUS42 KMHX 151527 AAA
TAFPGV
TAF AMD
KPGV 151527Z 1515/1612 01006KT P6SM FEW025 FEW200
      TEMPO 1515/1516 BKN025
     FM152000 01006KT P6SM BKN025
     FM160800 VRB04KT P6SM SCT045
      AMD LTD TO CLD VIS AND WIND=

USA.gov is the U.S. government's official web portal to all federal, state and local government web resources and services.